Time;durP1;ratioP1;P1;durP2;ratioP2;P2;SDS_P1;SDS_P2;PMS_P1;PMS_P2;Temp;Humidity;BMP_temperature;BMP_pressure;BME280_temperature;BME280_humidity;BME280_pressure;Samples;Min_cycle;Max_cycle;Signal;HPM_P1;HPM_P2
2023/12/05 00:02:25;;;;;;;17.73;12.70;;;-2.00;76.80;;;-3.15;82.95;97076.19;5073991;28;20453;-77
2023/12/05 00:04:52;;;;;;;18.10;12.80;;;-2.00;76.70;;;-3.37;83.35;97084.56;5075512;28;20809;-79
2023/12/05 00:07:22;;;;;;;19.50;12.17;;;-2.10;76.50;;;-3.33;83.31;97092.06;5082480;28;20445;-76
2023/12/05 00:09:49;;;;;;;17.87;12.53;;;-2.10;76.70;;;-3.07;82.63;97085.16;5084732;28;20439;-77
2023/12/05 00:12:16;;;;;;;20.80;13.80;;;-2.00;77.00;;;-3.00;81.89;97088.84;5081775;28;20522;-78
2023/12/05 00:14:44;;;;;;;17.83;13.00;;;-1.90;76.80;;;-3.14;82.16;97077.84;5087923;28;20456;-78
2023/12/05 00:17:11;;;;;;;19.93;12.70;;;-1.90;76.70;;;-3.22;81.79;97080.41;5082043;28;20434;-76
2023/12/05 00:19:38;;;;;;;18.23;12.00;;;-2.00;76.00;;;-3.30;81.88;97067.97;5093446;28;20450;-77
2023/12/05 00:22:06;;;;;;;15.00;10.53;;;-2.00;76.00;;;-3.27;81.27;97074.75;5092591;28;20535;-74
2023/12/05 00:24:34;;;;;;;14.33;10.73;;;-2.00;75.60;;;-3.30;81.40;97069.75;5094102;28;20563;-75
2023/12/05 00:27:01;;;;;;;18.03;12.50;;;-2.10;75.70;;;-3.09;81.93;97058.88;5097581;28;20966;-77
2023/12/05 00:29:29;;;;;;;17.93;12.37;;;-2.00;76.00;;;-2.99;81.24;97062.28;5091656;28;20453;-74
2023/12/05 00:31:56;;;;;;;19.63;13.10;;;-1.90;76.20;;;-3.08;81.65;97072.94;5080615;28;20457;-76
2023/12/05 00:34:23;;;;;;;15.40;10.97;;;-1.90;76.00;;;-2.96;81.87;97076.16;5088840;28;20448;-73
2023/12/05 00:36:50;;;;;;;18.43;12.90;;;-1.90;76.30;;;-3.11;82.21;97073.22;5084343;28;20440;-76
2023/12/05 00:39:18;;;;;;;14.60;10.93;;;-1.90;76.10;;;-3.17;81.81;97075.50;5082851;28;20451;-74
2023/12/05 00:41:46;;;;;;;20.70;12.97;;;-1.90;76.00;;;-3.06;81.76;97076.25;5084677;28;20438;-74
2023/12/05 00:44:14;;;;;;;14.50;10.80;;;-2.00;76.10;;;-3.13;82.26;97076.84;5085929;28;20468;-76
2023/12/05 00:46:41;;;;;;;18.20;12.50;;;-2.00;76.40;;;-3.15;83.13;97081.47;5090097;28;20444;-77
2023/12/05 00:49:08;;;;;;;18.00;12.37;;;-1.90;76.80;;;-3.17;83.11;97075.50;5088529;28;20448;-75
2023/12/05 00:51:35;;;;;;;15.07;10.30;;;-1.90;77.00;;;-3.14;83.54;97075.19;5088548;28;20444;-74
2023/12/05 00:54:03;;;;;;;16.00;11.57;;;-2.00;77.20;;;-3.29;84.16;97080.19;5086317;28;20741;-76
2023/12/05 00:56:30;;;;;;;17.00;12.20;;;-2.10;77.40;;;-3.05;85.71;97078.72;5087599;28;20453;-77
2023/12/05 00:58:59;;;;;;;14.50;11.37;;;-2.00;78.60;;;-3.34;86.03;97071.06;5086957;28;20497;-77
2023/12/05 01:01:26;;;;;;;16.43;11.93;;;-2.10;78.50;;;-3.39;88.44;97071.50;5089054;28;20485;-75
2023/12/05 01:03:56;;;;;;;19.77;12.93;;;-2.20;80.00;;;-3.42;89.57;97071.81;5074824;28;20481;-76
2023/12/05 01:06:24;;;;;;;19.10;13.53;;;-2.20;81.50;;;-3.25;89.91;97082.53;5078930;28;20633;-77
2023/12/05 01:08:51;;;;;;;19.30;13.80;;;-2.20;82.50;;;-3.45;91.08;97072.94;5086126;28;20486;-77
2023/12/05 01:11:18;;;;;;;20.30;14.27;;;-2.20;83.30;;;-3.61;92.17;97062.19;5087847;28;21488;-75
2023/12/05 01:13:45;;;;;;;20.03;13.37;;;-2.30;84.00;;;-3.63;92.78;97074.72;5088418;28;20427;-78
2023/12/05 01:16:15;;;;;;;17.50;12.90;;;-2.40;85.50;;;-3.61;93.57;97081.53;5085070;28;21022;-75
2023/12/05 01:18:42;;;;;;;20.60;14.70;;;-2.40;86.70;;;-3.68;94.36;97069.88;5087747;28;21170;-76
2023/12/05 01:21:09;;;;;;;23.27;14.83;;;-2.40;87.90;;;-3.55;94.99;97066.91;5087579;28;20542;-77
2023/12/05 01:23:37;;;;;;;19.37;13.67;;;-2.40;88.70;;;-3.42;94.29;97067.34;5086715;28;20564;-76
2023/12/05 01:26:05;;;;;;;21.60;15.23;;;-2.30;89.60;;;-3.57;94.67;97060.91;5083609;28;21333;-76
2023/12/05 01:28:32;;;;;;;19.67;14.57;;;-2.40;89.00;;;-3.46;95.26;97050.13;5088641;28;20535;-76
2023/12/05 01:30:59;;;;;;;22.60;15.20;;;-2.30;90.10;;;-3.44;94.82;97061.38;5088797;28;20506;-73
2023/12/05 01:33:28;;;;;;;27.50;18.10;;;-2.30;90.10;;;-3.44;94.77;97052.63;5085326;28;20455;-75
2023/12/05 01:35:55;;;;;;;23.70;15.33;;;-2.30;89.50;;;-3.31;94.78;97049.59;5084371;28;20462;-76
2023/12/05 01:38:22;;;;;;;19.60;12.50;;;-2.20;89.80;;;-3.28;93.90;97047.50;5086118;28;20457;-76
2023/12/05 01:40:49;;;;;;;21.50;14.70;;;-2.20;89.60;;;-3.35;94.18;97054.34;5083342;28;20464;-75
2023/12/05 01:43:17;;;;;;;24.63;16.93;;;-2.20;88.70;;;-3.38;93.83;97051.22;5088090;28;20506;-76
2023/12/05 01:45:44;;;;;;;25.13;16.27;;;-2.20;88.20;;;-3.25;94.03;97051.66;5084883;28;20520;-76
2023/12/05 01:48:12;;;;;;;24.37;14.93;;;-2.20;88.30;;;-3.33;93.85;97054.22;5087182;28;20520;-78
2023/12/05 01:50:40;;;;;;;19.00;14.57;;;-2.10;87.70;;;-3.34;93.78;97031.44;5087234;28;20977;-76
2023/12/05 01:53:08;;;;;;;18.87;13.40;;;-2.10;87.80;;;-3.27;93.25;97041.22;5090585;28;20447;-77
2023/12/05 01:55:37;;;;;;;20.80;13.20;;;-2.10;87.70;;;-3.09;93.01;97050.97;5082019;28;20474;-76
2023/12/05 01:58:07;;;;;;;21.80;14.27;;;-2.00;87.70;;;-3.16;93.61;97042.81;5084880;28;20956;-78
2023/12/05 02:00:35;;;;;;;26.67;16.83;;;-2.10;87.60;;;-3.21;93.75;97044.25;5086892;28;20447;-77
2023/12/05 02:03:02;;;;;;;19.43;14.87;;;-2.00;87.50;;;-3.31;94.26;97037.25;5088531;28;20455;-76
2023/12/05 02:05:30;;;;;;;17.23;12.43;;;-2.10;87.50;;;-3.35;94.22;97046.44;5081900;28;20484;-75
2023/12/05 02:07:58;;;;;;;19.80;13.20;;;-2.10;88.20;;;-3.71;95.08;96973.34;5082041;28;20534;-76
2023/12/05 02:10:25;;;;;;;26.30;16.67;;;-2.10;88.80;;;-3.18;95.05;97015.72;5086667;28;20522;-74
2023/12/05 02:12:52;;;;;;;23.97;15.83;;;-2.10;90.00;;;-3.16;94.87;97008.44;5083845;28;20477;-75
2023/12/05 02:15:20;;;;;;;23.50;16.27;;;-2.00;90.00;;;-3.26;95.23;97002.44;5081327;28;20521;-76
2023/12/05 02:18:08;;;;;;;22.00;16.30;;;-2.00;89.50;;;-3.14;95.25;97003.84;5082546;28;20437;-76
2023/12/05 02:20:45;;;;;;;22.43;16.30;;;-2.00;89.60;;;-3.24;94.88;96989.91;5088030;28;20447;-76
2023/12/05 02:23:45;;;;;;;22.63;14.77;;;-1.90;89.40;;;-3.22;95.50;96993.22;5081154;28;21174;-76
2023/12/05 02:26:24;;;;;;;20.83;13.27;;;-2.00;89.10;;;-2.98;95.07;97002.28;5080973;28;20439;-76
2023/12/05 02:28:53;;;;;;;27.00;14.80;;;-1.90;89.90;;;-3.15;95.21;96994.25;5083299;28;20547;-73
2023/12/05 02:31:20;;;;;;;24.13;15.60;;;-1.90;89.60;;;-2.99;95.70;96987.44;5084417;28;21035;-76
2023/12/05 02:33:49;;;;;;;19.80;13.93;;;-1.90;90.10;;;-3.03;96.08;96980.78;5084332;28;21152;-76
2023/12/05 02:36:24;;;;;;;20.20;14.90;;;-1.80;90.30;;;-2.85;95.83;96989.50;5082928;28;20521;-75
2023/12/05 02:39:05;;;;;;;19.30;14.17;;;-1.70;90.60;;;-3.28;96.40;96909.28;5083786;28;20444;-76
2023/12/05 02:41:37;;;;;;;21.70;14.70;;;-1.70;90.60;;;-2.91;96.82;96962.84;5075816;28;20508;-76
2023/12/05 02:44:10;;;;;;;19.87;14.90;;;-1.60;90.70;;;-2.76;96.75;96976.34;5085046;28;21922;-74
2023/12/05 02:46:40;;;;;;;23.23;17.07;;;-1.60;90.80;;;-2.82;97.28;96966.38;5076179;28;20449;-75
2023/12/05 02:49:09;;;;;;;21.83;15.50;;;-1.60;91.00;;;-2.88;97.01;96958.09;5074592;28;20453;-74
2023/12/05 02:51:36;;;;;;;21.97;15.00;;;-1.60;91.00;;;-2.82;97.74;96929.34;5081861;28;20443;-73
2023/12/05 02:54:06;;;;;;;24.43;16.70;;;-1.60;91.30;;;-2.57;97.05;96957.59;5082082;28;21327;-76
2023/12/05 02:56:35;;;;;;;22.57;15.37;;;-1.40;91.50;;;-2.51;96.68;96958.78;5075849;28;20450;-74
2023/12/05 02:59:02;;;;;;;22.00;16.40;;;-1.40;91.40;;;-2.39;96.29;96967.25;5083213;28;20466;-73
2023/12/05 03:01:33;;;;;;;20.70;15.60;;;-1.30;91.40;;;-2.36;96.74;96961.63;5097091;28;20441;-74
2023/12/05 03:04:00;;;;;;;24.33;16.73;;;-1.20;91.50;;;-2.37;97.36;96946.75;5076508;28;20484;-74
2023/12/05 03:06:28;;;;;;;25.17;17.30;;;-1.20;91.40;;;-2.24;97.55;96953.41;5081238;28;20461;-75
2023/12/05 03:08:56;;;;;;;22.73;16.47;;;-1.20;92.00;;;-2.15;97.53;96952.47;5083239;28;20449;-74
2023/12/05 03:11:23;;;;;;;19.90;15.43;;;-1.10;91.90;;;-2.02;98.69;96950.19;5079427;28;20452;-74
2023/12/05 03:13:50;;;;;;;22.27;16.00;;;-1.00;92.70;;;-1.99;98.52;96946.38;5079101;28;20449;-75
2023/12/05 03:16:17;;;;;;;22.53;14.23;;;-0.90;92.90;;;-1.95;98.89;96947.72;5076998;28;20464;-76
2023/12/05 03:18:45;;;;;;;24.03;16.57;;;-0.90;92.80;;;-1.92;99.17;96949.19;5078075;28;20447;-73
2023/12/05 03:21:17;;;;;;;28.50;17.73;;;-0.90;92.70;;;-1.96;99.68;96951.38;5091428;28;20457;-74
2023/12/05 03:23:44;;;;;;;25.73;17.00;;;-0.90;92.80;;;-1.86;99.39;96957.31;5096673;28;20506;-73
2023/12/05 03:26:19;;;;;;;23.50;16.40;;;-0.80;93.30;;;-1.84;99.78;96941.28;5076840;28;20510;-75
2023/12/05 03:28:47;;;;;;;27.17;17.23;;;-0.80;93.50;;;-1.80;99.71;96949.75;5084463;28;20525;-75
2023/12/05 03:31:14;;;;;;;24.10;16.73;;;-0.70;93.70;;;-1.73;99.91;96946.28;5080667;28;20510;-76
2023/12/05 03:33:41;;;;;;;25.37;17.67;;;-0.70;93.70;;;-1.67;99.92;96949.25;5081691;28;20470;-76
2023/12/05 03:36:12;;;;;;;26.60;18.20;;;-0.60;93.90;;;-1.64;99.78;96949.75;5082792;28;20460;-76
2023/12/05 03:38:39;;;;;;;22.23;15.90;;;-0.60;93.80;;;-1.50;99.87;96958.03;5085196;28;20458;-76
2023/12/05 03:41:08;;;;;;;22.80;17.60;;;-0.50;94.10;;;-1.41;99.50;96953.56;5084342;28;20476;-77
2023/12/05 03:43:36;;;;;;;24.13;18.07;;;-0.40;94.10;;;-1.48;99.27;96959.53;5099635;28;20469;-78
2023/12/05 03:46:03;;;;;;;23.70;16.50;;;-0.40;93.50;;;-1.48;99.42;96948.91;5074720;28;20481;-77
2023/12/05 03:48:30;;;;;;;26.80;18.00;;;-0.40;93.50;;;-1.33;99.28;96961.50;5082030;28;20448;-78
2023/12/05 03:50:57;;;;;;;28.23;18.87;;;-0.30;93.60;;;-1.41;100.00;96962.34;5086894;28;20465;-74
2023/12/05 03:53:26;;;;;;;24.43;16.60;;;-0.40;93.60;;;-1.41;100.00;96954.38;5084901;28;20488;-76
2023/12/05 03:55:53;;;;;;;25.40;19.07;;;-0.30;93.80;;;-1.38;100.00;96958.53;5087842;28;20474;-76
2023/12/05 03:58:21;;;;;;;25.80;18.40;;;-0.30;93.80;;;-1.30;100.00;96964.66;5095254;28;20461;-74
2023/12/05 04:00:48;;;;;;;25.43;18.00;;;-0.30;94.00;;;-1.40;99.86;96940.16;5094514;28;20452;-75
2023/12/05 04:03:16;;;;;;;27.37;18.10;;;-0.20;93.80;;;-1.33;100.00;96961.50;5091555;28;20438;-73
2023/12/05 04:05:43;;;;;;;19.77;13.97;;;-0.30;93.60;;;-1.39;100.00;96956.88;5106507;28;20474;-75
2023/12/05 04:08:11;;;;;;;27.33;18.10;;;-0.30;93.80;;;-1.31;100.00;96948.91;5095582;28;20459;-77
2023/12/05 04:10:39;;;;;;;25.60;17.80;;;-0.20;93.70;;;-1.27;100.00;96950.25;5092358;28;20452;-73
2023/12/05 04:13:06;;;;;;;28.67;18.30;;;-0.20;93.60;;;-1.38;99.88;96938.16;5107280;28;20452;-74
2023/12/05 04:15:34;;;;;;;25.70;18.37;;;-0.20;93.60;;;-1.24;99.88;96955.22;5089103;28;20487;-75
2023/12/05 04:18:01;;;;;;;23.47;17.00;;;-0.20;93.80;;;-1.44;100.00;96934.38;5088448;28;20570;-75
2023/12/05 04:20:28;;;;;;;28.30;19.40;;;-0.20;93.70;;;-1.27;100.00;96965.31;5090383;28;20458;-74
2023/12/05 04:22:56;;;;;;;30.10;19.70;;;-0.20;93.70;;;-1.80;99.90;96865.00;5086357;28;20594;-77
2023/12/05 04:25:23;;;;;;;26.80;19.30;;;-0.10;93.70;;;-1.27;100.00;96958.22;5101409;28;20998;-77
2023/12/05 04:27:52;;;;;;;26.57;18.37;;;-0.20;93.30;;;-1.24;100.00;96952.56;5083252;28;20462;-74
2023/12/05 04:30:19;;;;;;;24.63;17.90;;;-0.20;93.40;;;-1.27;99.88;96960.88;5101893;28;20456;-75
2023/12/05 04:32:46;;;;;;;29.27;21.23;;;-0.20;93.20;;;-1.26;100.00;96956.38;5080057;28;20454;-75
2023/12/05 04:35:15;;;;;;;27.70;18.47;;;-0.20;93.40;;;-1.23;100.00;96956.88;5085487;28;20445;-74
2023/12/05 04:37:42;;;;;;;27.40;17.73;;;-0.20;93.70;;;-1.34;100.00;96957.19;5084051;28;20440;-76
2023/12/05 04:40:10;;;;;;;27.93;18.70;;;-0.20;93.60;;;-1.34;100.00;96954.56;5085782;28;20476;-80
2023/12/05 04:42:38;;;;;;;30.30;20.97;;;-0.20;93.50;;;-1.29;100.00;96962.81;5087483;28;20464;-78
2023/12/05 04:45:08;;;;;;;27.10;20.63;;;-0.20;93.50;;;-1.20;100.00;96969.78;5084314;28;20575;-74
2023/12/05 04:47:35;;;;;;;25.67;18.50;;;-0.20;93.60;;;-1.31;100.00;96970.13;5090125;28;20460;-74
2023/12/05 04:50:03;;;;;;;27.50;18.17;;;-0.20;93.20;;;-1.24;99.68;96959.69;5085064;28;20511;-74
2023/12/05 04:52:31;;;;;;;29.93;20.17;;;-0.10;93.20;;;-1.23;99.80;96972.78;5085150;28;20544;-76
2023/12/05 04:54:59;;;;;;;30.13;19.00;;;-0.10;93.00;;;-1.24;99.66;96957.03;5080487;28;20796;-75
2023/12/05 04:57:27;;;;;;;29.53;19.30;;;-0.10;93.00;;;-1.33;99.91;96956.22;5080709;28;20441;-78
2023/12/05 04:59:54;;;;;;;32.87;21.50;;;-0.20;92.90;;;-1.27;99.80;96960.88;5084596;28;20456;-77
2023/12/05 05:02:24;;;;;;;29.80;21.77;;;-0.20;93.10;;;-1.21;99.59;96965.50;5075584;28;20465;-77
2023/12/05 05:04:52;;;;;;;28.43;20.20;;;-0.20;93.20;;;-1.11;98.87;96960.00;5087607;28;20478;-75
2023/12/05 05:07:19;;;;;;;29.37;20.63;;;-0.10;93.30;;;-1.17;99.16;96964.16;5083658;28;20510;-75
2023/12/05 05:09:46;;;;;;;28.23;20.43;;;-0.10;93.00;;;-1.08;99.43;96967.63;5071772;28;20549;-76
2023/12/05 05:12:14;;;;;;;34.87;20.77;;;-0.10;92.90;;;-1.23;98.94;96967.47;5082472;28;20503;-75
2023/12/05 05:14:41;;;;;;;31.20;20.83;;;-0.10;92.80;;;-1.31;99.82;96972.78;5087209;28;20459;-75
2023/12/05 05:17:08;;;;;;;34.77;20.13;;;-0.20;93.00;;;-1.31;99.84;96970.97;5085019;28;20538;-75
2023/12/05 05:19:37;;;;;;;30.23;21.50;;;-0.20;93.30;;;-1.29;100.00;96963.66;5083923;28;20443;-76
2023/12/05 05:22:04;;;;;;;31.37;20.67;;;-0.20;93.70;;;-1.20;99.76;96967.16;5100339;28;20496;-75
2023/12/05 05:24:32;;;;;;;37.17;22.70;;;-0.20;93.90;;;-1.11;99.61;96969.81;5101376;28;20511;-76
2023/12/05 05:27:00;;;;;;;29.60;22.03;;;-0.10;93.60;;;-1.01;99.22;96970.44;5086322;28;20451;-75
2023/12/05 05:29:27;;;;;;;30.33;19.30;;;0.00;93.40;;;-1.03;98.97;96961.81;5083857;28;20949;-75
2023/12/05 05:31:54;;;;;;;30.83;21.80;;;0.00;93.10;;;-0.95;98.71;96964.47;5093357;28;20924;-73
2023/12/05 05:34:21;;;;;;;34.70;23.57;;;0.10;92.90;;;-1.17;98.41;96913.78;5095672;28;20471;-74
2023/12/05 05:36:50;;;;;;;29.97;20.90;;;0.20;92.80;;;-0.91;98.26;96954.34;5073548;28;20453;-75
2023/12/05 05:39:17;;;;;;;30.07;20.57;;;0.20;92.40;;;-0.70;98.02;96967.06;5098503;28;20460;-68
2023/12/05 05:41:44;;;;;;;32.37;21.33;;;0.30;92.40;;;-0.63;97.31;96957.44;5087020;28;20463;-69
2023/12/05 05:44:11;;;;;;;30.60;20.93;;;0.40;92.10;;;-0.47;96.42;96956.53;5079423;28;20445;-69
2023/12/05 05:46:39;;;;;;;32.23;20.70;;;0.50;91.40;;;-0.41;95.36;96970.16;5085807;28;20476;-70
2023/12/05 05:49:07;;;;;;;27.37;19.87;;;0.50;91.20;;;-0.46;95.63;96962.69;5082285;28;20520;-69
2023/12/05 05:51:34;;;;;;;28.43;21.43;;;0.60;90.90;;;-0.46;95.78;96960.03;5087449;28;20446;-69
2023/12/05 05:54:03;;;;;;;29.97;21.30;;;0.50;90.80;;;-0.38;96.13;96968.00;5078167;28;20462;-72
2023/12/05 05:56:30;;;;;;;31.37;21.53;;;0.60;91.00;;;-0.29;95.03;96971.44;5082500;28;20462;-72
2023/12/05 05:58:57;;;;;;;29.27;20.20;;;0.70;90.60;;;-0.26;94.86;96962.28;5080442;28;20839;-72
2023/12/05 06:01:25;;;;;;;28.83;21.00;;;0.70;90.50;;;-0.24;94.57;96963.78;5099995;27;20991;-71
2023/12/05 06:03:52;;;;;;;28.23;20.80;;;0.70;90.30;;;-0.37;94.64;96956.38;5078936;28;21004;-71
2023/12/05 06:06:19;;;;;;;29.80;21.07;;;0.70;90.00;;;-0.57;95.40;96962.06;5078778;28;20476;-71
2023/12/05 06:08:46;;;;;;;36.07;20.93;;;0.60;90.30;;;-0.53;95.91;96965.19;5077793;28;20451;-71
2023/12/05 06:11:15;;;;;;;27.40;20.20;;;0.50;90.50;;;-0.58;96.00;96964.91;5085398;28;20467;-70
2023/12/05 06:13:42;;;;;;;31.40;21.63;;;0.40;90.70;;;-0.60;96.18;96964.25;5076575;28;20942;-71
2023/12/05 06:16:14;;;;;;;28.10;20.57;;;0.40;90.90;;;-0.57;95.84;96967.34;5080578;28;20459;-70
2023/12/05 06:18:42;;;;;;;29.90;20.73;;;0.40;91.20;;;-1.06;96.33;96887.94;5084110;28;20903;-70
2023/12/05 06:21:09;;;;;;;26.90;20.77;;;0.40;91.20;;;-0.55;96.06;96974.31;5082224;28;20481;-70
2023/12/05 06:23:38;;;;;;;33.37;20.73;;;0.40;91.20;;;-0.63;97.37;96972.53;5098321;27;20440;-70
2023/12/05 06:26:06;;;;;;;31.00;21.10;;;0.40;91.70;;;-0.51;97.69;96971.16;5079826;28;20558;-69
2023/12/05 06:28:35;;;;;;;32.33;23.23;;;0.50;92.40;;;-0.54;97.70;96975.97;5078995;28;20468;-70
2023/12/05 06:31:02;;;;;;;30.23;20.80;;;0.50;92.40;;;-0.59;97.85;96982.63;5084267;28;20437;-70
2023/12/05 06:33:29;;;;;;;31.40;20.83;;;0.40;92.20;;;-0.64;97.71;96973.53;5082486;28;20681;-71
2023/12/05 06:35:56;;;;;;;30.70;21.63;;;0.40;92.10;;;-0.68;100.00;96909.38;5081727;28;20775;-70
2023/12/05 06:38:23;;;;;;;31.30;20.60;;;0.70;94.60;;;0.26;100.00;96972.31;5078824;28;20567;-71
2023/12/05 06:40:51;;;;;;;35.10;21.40;;;1.00;96.70;;;-0.16;97.99;96969.03;5086069;28;20464;-70
2023/12/05 06:43:18;;;;;;;33.00;21.70;;;0.90;93.90;;;-0.88;97.58;96907.09;5097258;28;21025;-71
2023/12/05 06:45:46;;;;;;;31.90;20.90;;;0.70;92.20;;;-0.49;97.84;96973.66;5081251;28;20481;-71
2023/12/05 06:48:15;;;;;;;25.47;19.67;;;0.50;92.00;;;-0.72;97.97;96979.66;5084435;28;20442;-72
2023/12/05 06:50:45;;;;;;;30.97;21.97;;;0.40;92.00;;;-0.93;98.74;96967.78;5085680;28;20538;-71
2023/12/05 06:53:12;;;;;;;35.37;21.40;;;0.20;92.00;;;-0.76;98.60;96981.84;5074992;28;20547;-71
2023/12/05 06:55:40;;;;;;;30.17;22.60;;;0.30;93.00;;;-0.86;98.95;96984.66;5083231;28;20442;-72
2023/12/05 06:58:07;;;;;;;30.97;21.20;;;0.20;92.80;;;-0.96;98.71;96984.03;5078730;28;20521;-71
2023/12/05 07:00:34;;;;;;;27.97;21.87;;;0.10;92.80;;;-0.98;98.88;96990.50;5081498;28;20974;-77
2023/12/05 07:03:03;;;;;;;26.90;20.43;;;0.10;92.90;;;-1.09;99.42;96989.03;5074705;28;20459;-79
2023/12/05 07:05:30;;;;;;;30.57;21.17;;;0.00;92.80;;;-1.16;99.08;96994.97;5072200;28;20965;-81
2023/12/05 07:07:58;;;;;;;28.30;19.60;;;-0.10;93.10;;;-1.31;99.71;97002.75;5093432;27;20450;-73
2023/12/05 07:10:25;;;;;;;35.80;21.53;;;-0.20;93.20;;;-1.32;99.98;97001.13;5075865;28;20450;-82
2023/12/05 07:12:53;;;;;;;28.83;21.83;;;-0.30;93.50;;;-1.26;100.00;97015.53;5082433;28;20533;-78
2023/12/05 07:15:20;;;;;;;35.40;23.17;;;-0.30;94.10;;;-1.23;100.00;97024.97;5107601;27;20447;-76
2023/12/05 07:17:48;;;;;;;28.83;21.00;;;-0.30;94.20;;;-1.23;100.00;97017.84;5078610;28;20470;-77
2023/12/05 07:20:16;;;;;;;31.77;23.23;;;-0.30;94.50;;;-1.41;100.00;97030.44;5073682;28;20473;-77
2023/12/05 07:22:44;;;;;;;38.07;24.20;;;-0.30;94.00;;;-1.43;100.00;97023.47;5078090;28;20453;-77
2023/12/05 07:25:11;;;;;;;31.03;22.30;;;-0.30;94.20;;;-1.18;100.00;97017.34;5074691;28;21107;-80
2023/12/05 07:27:39;;;;;;;36.40;23.40;;;-0.20;95.20;;;-1.33;99.81;97018.00;5085192;28;20465;-79
2023/12/05 07:30:08;;;;;;;37.47;25.67;;;-0.30;94.20;;;-1.21;99.95;97023.00;5085448;28;20499;-78
2023/12/05 07:32:36;;;;;;;36.23;24.30;;;-0.20;94.10;;;-1.04;100.00;97023.81;5085548;28;20531;-78
2023/12/05 07:35:03;;;;;;;37.33;24.43;;;-0.10;94.70;;;-0.93;100.00;97019.97;5082910;28;20447;-78
2023/12/05 07:37:32;;;;;;;38.43;24.20;;;-0.10;94.50;;;-0.76;100.00;97026.13;5100076;28;20452;-80
2023/12/05 07:39:59;;;;;;;37.10;25.00;;;0.00;95.20;;;-0.63;99.08;97037.03;5084154;28;20531;-82
2023/12/05 07:42:27;;;;;;;31.53;23.33;;;0.20;95.30;;;-1.04;97.89;97039.72;5085997;28;20666;-79
2023/12/05 07:44:55;;;;;;;33.90;24.83;;;0.00;92.60;;;-1.02;98.58;97032.41;5080121;28;20520;-78
2023/12/05 07:47:23;;;;;;;35.13;23.27;;;0.00;92.20;;;-1.05;98.10;97027.47;5074829;28;20476;-74
2023/12/05 07:49:51;;;;;;;38.10;23.10;;;0.00;92.20;;;-1.06;98.33;97047.84;5084193;28;20458;-76
2023/12/05 07:52:18;;;;;;;37.03;23.27;;;0.00;92.10;;;-1.05;97.98;97041.56;5074334;28;20468;-80
2023/12/05 07:54:47;;;;;;;41.00;21.73;;;0.00;92.10;;;-1.03;98.29;97042.22;5073190;28;20456;-80
2023/12/05 07:57:14;;;;;;;31.67;21.57;;;0.00;92.00;;;-0.81;97.96;97039.06;5076242;28;20475;-74
2023/12/05 07:59:41;;;;;;;29.57;22.20;;;0.10;92.10;;;-1.25;96.71;96969.47;5082345;28;20484;-72
2023/12/05 08:02:09;;;;;;;30.93;21.30;;;0.20;91.50;;;-0.74;97.04;97029.41;5078487;28;20577;-72
2023/12/05 08:04:36;;;;;;;28.13;20.63;;;0.30;91.50;;;-0.63;97.40;97037.03;5079448;28;20457;-72
2023/12/05 08:07:04;;;;;;;34.20;22.97;;;0.30;91.70;;;-0.66;97.49;97042.69;5078127;28;20570;-70
2023/12/05 08:09:31;;;;;;;31.20;22.07;;;0.30;91.40;;;-0.58;96.46;97033.88;5080260;28;20767;-72
2023/12/05 08:12:00;;;;;;;35.60;23.63;;;0.50;91.30;;;-0.59;96.31;97048.97;5084553;28;20449;-72
2023/12/05 08:14:27;;;;;;;34.13;21.17;;;0.50;90.80;;;-0.50;95.61;97041.00;5086062;28;20465;-72
2023/12/05 08:16:54;;;;;;;22.30;17.60;;;0.50;90.50;;;-0.43;95.00;97037.50;5085306;28;20454;-72
2023/12/05 08:19:22;;;;;;;32.37;21.97;;;0.60;90.00;;;-0.48;95.27;97045.13;5083001;28;20449;-72
2023/12/05 08:21:49;;;;;;;33.60;21.43;;;0.60;90.00;;;-0.36;94.73;97052.75;5083417;28;20440;-73
2023/12/05 08:24:16;;;;;;;31.80;21.70;;;0.70;89.70;;;-0.28;94.49;97050.06;5081416;28;20863;-72
2023/12/05 08:26:44;;;;;;;31.90;20.77;;;0.70;89.50;;;-0.22;94.10;97059.19;5091162;28;20817;-72
2023/12/05 08:29:12;;;;;;;28.97;20.17;;;0.80;89.10;;;-0.19;94.12;97050.88;5086302;28;20442;-72
2023/12/05 08:31:39;;;;;;;33.50;21.40;;;0.80;89.40;;;0.02;93.27;97046.81;5084149;28;21122;-73
2023/12/05 08:34:07;;;;;;;33.03;22.73;;;0.90;88.80;;;0.12;92.31;97050.91;5100073;28;20477;-72
2023/12/05 08:36:34;;;;;;;35.40;22.93;;;1.00;88.00;;;0.16;91.93;97056.72;5088503;28;20480;-71
2023/12/05 08:39:03;;;;;;;26.30;20.43;;;1.10;87.30;;;0.12;91.33;97029.66;5086419;28;20451;-72
2023/12/05 08:41:30;;;;;;;30.93;21.97;;;1.20;87.10;;;0.34;91.22;97052.97;5084999;28;21120;-73
2023/12/05 08:43:58;;;;;;;25.87;19.60;;;1.30;86.90;;;0.22;91.21;97053.34;5082750;28;20461;-71
2023/12/05 08:46:26;;;;;;;31.57;21.50;;;1.30;86.40;;;0.33;91.60;97060.13;5100014;28;20474;-72
2023/12/05 08:48:54;;;;;;;26.77;20.10;;;1.30;86.60;;;0.25;91.53;97061.00;5088235;28;20441;-71
2023/12/05 08:51:22;;;;;;;33.50;20.70;;;1.40;86.50;;;0.50;91.34;97058.19;5086246;28;20515;-73
2023/12/05 08:53:49;;;;;;;28.33;20.13;;;1.40;86.80;;;0.61;90.61;97058.81;5085523;28;20473;-71
2023/12/05 08:56:16;;;;;;;30.90;18.90;;;1.50;86.50;;;0.54;90.92;97062.19;5085460;28;20906;-73
2023/12/05 08:58:43;;;;;;;27.87;19.50;;;1.50;86.30;;;0.59;90.54;97068.81;5087673;28;20485;-72
2023/12/05 09:01:12;;;;;;;26.67;18.33;;;1.60;86.10;;;0.62;90.92;97060.47;5077203;28;20520;-72
2023/12/05 09:03:40;;;;;;;28.23;19.70;;;1.60;86.00;;;0.63;90.02;97055.00;5080322;28;20484;-74
2023/12/05 09:06:08;;;;;;;30.70;20.00;;;1.70;85.70;;;0.69;91.07;97069.41;5088338;28;20471;-72
2023/12/05 09:08:36;;;;;;;28.40;18.90;;;1.60;86.30;;;0.86;90.11;97064.78;5082949;28;20485;-73
2023/12/05 09:11:04;;;;;;;24.93;17.30;;;1.80;86.20;;;0.78;89.92;97055.03;5096109;28;20534;-71
2023/12/05 09:13:31;;;;;;;29.40;20.30;;;1.80;85.60;;;1.04;89.50;97056.53;5087586;28;20457;-71
2023/12/05 09:15:58;;;;;;;30.80;20.50;;;2.00;85.70;;;1.26;88.96;97064.66;5082097;28;20493;-72
2023/12/05 09:18:25;;;;;;;30.40;20.27;;;2.10;85.60;;;1.47;87.70;97063.97;5087225;28;20449;-72
2023/12/05 09:20:54;;;;;;;26.83;18.87;;;2.30;85.10;;;1.28;88.51;97070.63;5086591;28;20953;-70
2023/12/05 09:23:21;;;;;;;27.40;19.47;;;2.20;84.30;;;1.54;87.47;97072.06;5083805;28;20509;-72
2023/12/05 09:25:48;;;;;;;25.60;18.20;;;2.40;84.50;;;1.71;86.62;97075.41;5087592;28;20873;-73
2023/12/05 09:28:15;;;;;;;27.00;18.30;;;2.60;83.90;;;1.53;84.20;96993.19;5083402;28;20948;-72
2023/12/05 09:30:43;;;;;;;22.07;18.70;;;2.90;83.20;;;1.96;84.46;97077.78;5085699;28;20467;-73
2023/12/05 09:33:10;;;;;;;22.63;16.63;;;2.90;82.70;;;2.07;85.28;97069.34;5083619;28;20467;-73
2023/12/05 09:35:37;;;;;;;24.33;17.00;;;2.90;83.00;;;2.09;84.75;97072.66;5084043;28;20464;-72
2023/12/05 09:38:07;;;;;;;23.53;17.90;;;3.00;82.50;;;2.50;82.78;97074.00;5084952;28;20451;-73
2023/12/05 09:40:35;;;;;;;23.60;18.00;;;3.30;82.50;;;2.07;83.09;97001.91;5076673;28;20465;-71
2023/12/05 09:43:06;;;;;;;27.60;18.40;;;3.40;82.10;;;2.79;82.20;97072.25;5079907;28;21239;-72
2023/12/05 09:45:39;;;;;;;26.90;18.10;;;3.50;82.20;;;2.35;84.00;97071.34;5075389;28;20658;-70
2023/12/05 09:48:09;;;;;;;26.33;18.67;;;3.30;81.90;;;2.02;85.55;97068.25;5075105;28;20922;-72
2023/12/05 09:50:37;;;;;;;31.90;18.10;;;3.10;82.30;;;2.10;86.76;97068.97;5094788;28;20561;-75
2023/12/05 09:53:09;;;;;;;24.70;17.50;;;3.00;83.30;;;2.15;85.32;97068.41;5069802;28;20463;-69
2023/12/05 09:55:39;;;;;;;21.97;17.33;;;3.00;83.10;;;2.16;86.11;97061.28;5075374;28;21052;-77
2023/12/05 09:58:07;;;;;;;24.10;18.17;;;3.00;83.20;;;1.95;87.06;97071.66;5083528;28;20466;-75
2023/12/05 10:00:34;;;;;;;23.57;18.10;;;2.90;83.40;;;2.40;85.18;97073.47;5079341;28;20459;-76
2023/12/05 10:03:06;;;;;;;22.30;15.80;;;3.10;83.60;;;1.98;86.54;97071.28;5074579;28;20464;-77
2023/12/05 10:05:35;;;;;;;25.80;17.20;;;3.00;83.20;;;1.87;87.87;97079.72;5079744;28;20507;-77
2023/12/05 10:08:05;;;;;;;23.37;17.33;;;2.90;83.70;;;1.97;87.94;97069.63;5101320;28;20470;-74
2023/12/05 10:10:34;;;;;;;24.67;17.80;;;2.90;84.30;;;1.93;88.08;97064.84;5096138;28;20466;-75
2023/12/05 10:13:03;;;;;;;25.90;18.33;;;2.90;84.10;;;1.54;87.49;97010.81;5090296;28;20445;-72
2023/12/05 10:15:32;;;;;;;25.93;18.20;;;2.90;84.50;;;2.14;87.34;97072.09;5087928;28;20810;-76